Weather History for St. James, MN

Change the Weather History Date:

Friday, March 28, 2014

  Actual Average Record
Temperature  
Mean Temperature 32 °F -  
Max Temperature 37 °F 50 °F 78 °F (1968)
Min Temperature 28 °F 29 °F 5 °F (1969)
Degree Days  
Heating Degree Days 32    
Moisture  
Dew Point 26 °F    
Average Humidity 78    
Maximum Humidity 86    
Minimum Humidity 60    
Precipitation  
Precipitation 0.00 in - - ()
Sea Level Pressure  
Sea Level Pressure 30.07 in    
Wind  
Wind Speed 12 mph (NW)    
Max Wind Speed 17 mph    
Max Gust Speed 26 mph    
Visibility 10 miles    
Events      
Averages and records for this station are not official NWS values.
T = Trace of Precipitation, MM = Missing Value Source: NWS Daily Summary

Daily Weather History Graph

Daily Weather History Graph

Search for Another Location

Airport:

Trip Planner

Search our weather history database for the weather conditions in past years. The results will help you decide how hot, cold, wet, or windy it might be!

Date:

Astronomy

Mar. 28, 2014 Rise Set
Actual Time 7:06 AM CDT 7:40 PM CDT
Civil Twilight 6:37 AM CDT 8:09 PM CDT
Nautical Twilight 6:03 AM CDT 8:43 PM CDT
Astronomical Twilight 5:28 AM CDT 9:19 PM CDT
Moon 5:42 AM CDT (3/28) 5:34 PM CDT (3/28)
Length of Visible Light 13h 31m
Length of Day
12h 33m
Waning Crescent, 6% of the Moon is Illuminated
Mar 28
Waning Crescent
Mar 30
New
Apr 7
First Quarter
Apr 15
Full
Apr 22
Last Quarter

Hourly Weather History & Observations

Time (CDT) Temp. Windchill Dew Point Humidity Pressure Visibility Wind Dir Wind Speed Gust Speed Precip Events Conditions
12:15 AM 33.8 °F 23.2 °F 28.4 °F 81% 29.79 in 10.0 mi NNW 17.3 mph 24.2 mph N/A   Overcast
12:35 AM 33.8 °F 23.2 °F 28.4 °F 81% 29.80 in 10.0 mi NNW 17.3 mph 26.5 mph N/A   Overcast
12:55 AM 33.8 °F 23.5 °F 28.4 °F 81% 29.81 in 10.0 mi NNW 16.1 mph 25.3 mph N/A   Overcast
1:15 AM 33.8 °F 23.5 °F 26.6 °F 75% 29.82 in 10.0 mi NNW 16.1 mph 21.9 mph N/A   Overcast
1:35 AM 33.8 °F 23.2 °F 26.6 °F 75% 29.83 in 10.0 mi NNW 17.3 mph 23.0 mph N/A   Overcast
1:55 AM 33.8 °F 23.9 °F 26.6 °F 75% 29.84 in 10.0 mi NNW 15.0 mph - N/A   Overcast
2:15 AM 33.8 °F 24.3 °F 26.6 °F 75% 29.85 in 10.0 mi NNW 13.8 mph 20.7 mph N/A   Overcast
2:35 AM 33.8 °F 23.9 °F 26.6 °F 75% 29.86 in 10.0 mi NNW 15.0 mph - N/A   Overcast
2:55 AM 33.8 °F 23.5 °F 26.6 °F 75% 29.87 in 10.0 mi NW 16.1 mph - N/A   Overcast
3:15 AM 33.8 °F 24.8 °F 26.6 °F 75% 29.88 in 10.0 mi NW 12.7 mph - N/A   Overcast
3:35 AM 33.8 °F 24.8 °F 26.6 °F 75% 29.89 in 10.0 mi NW 12.7 mph - N/A   Overcast
3:55 AM 32.0 °F 20.8 °F 26.6 °F 80% - 10.0 mi NW 17.3 mph 21.9 mph N/A   Overcast
4:15 AM 32.0 °F 21.6 °F 26.6 °F 80% 29.91 in 10.0 mi NW 15.0 mph - N/A   Overcast
4:35 AM 32.0 °F 23.0 °F 26.6 °F 80% 29.92 in 10.0 mi NNW 11.5 mph - N/A   Overcast
4:55 AM 32.0 °F 22.5 °F 26.6 °F 80% 29.92 in 10.0 mi NNW 12.7 mph - N/A   Overcast
5:15 AM 32.0 °F 24.2 °F 26.6 °F 80% 29.93 in 10.0 mi NNW 9.2 mph - N/A   Overcast
5:35 AM 32.0 °F 23.6 °F 26.6 °F 80% 29.94 in 10.0 mi NNW 10.4 mph - N/A   Overcast
5:55 AM 32.0 °F 24.2 °F 26.6 °F 80% 29.95 in 10.0 mi NNW 9.2 mph - N/A   Overcast
6:14 AM 30.2 °F 19.8 °F 26.6 °F 86% 29.96 in 10.0 mi NW 13.8 mph - N/A   Overcast
6:35 AM 30.2 °F 19.8 °F 26.6 °F 86% 29.96 in 10.0 mi NNW 13.8 mph - N/A   Overcast
6:55 AM 30.2 °F 18.9 °F 24.8 °F 80% 29.98 in 10.0 mi NW 16.1 mph - N/A   Overcast
7:14 AM 28.4 °F 17.5 °F 24.8 °F 86% 29.99 in 10.0 mi NW 13.8 mph - N/A   Overcast
7:35 AM 30.2 °F 21.3 °F 24.8 °F 80% 30.00 in 10.0 mi NNW 10.4 mph - N/A   Overcast
7:55 AM 28.4 °F 19.7 °F 24.8 °F 86% 30.03 in 10.0 mi WNW 9.2 mph - N/A   Overcast
8:15 AM 28.4 °F 19.7 °F 24.8 °F 86% 30.04 in 10.0 mi NW 9.2 mph - N/A   Overcast
8:35 AM 28.4 °F 19.1 °F 24.8 °F 86% 30.04 in 10.0 mi NW 10.4 mph - N/A   Overcast
8:55 AM 28.4 °F 17.5 °F 24.8 °F 86% 30.03 in 10.0 mi NNW 13.8 mph - N/A   Overcast
9:15 AM 28.4 °F 19.7 °F 24.8 °F 86% 30.04 in 10.0 mi NNW 9.2 mph - N/A   Overcast
9:35 AM 28.4 °F 19.7 °F 24.8 °F 86% 30.07 in 10.0 mi WNW 9.2 mph - N/A   Overcast
9:55 AM 28.4 °F 19.7 °F 24.8 °F 86% 30.08 in 10.0 mi WNW 9.2 mph - N/A   Overcast
10:15 AM 30.2 °F 20.8 °F 23.0 °F 75% 30.09 in 10.0 mi West 11.5 mph - N/A   Overcast
10:35 AM 30.2 °F 20.8 °F 23.0 °F 75% 30.09 in 10.0 mi WNW 11.5 mph - N/A   Overcast
10:55 AM 30.2 °F 19.3 °F 24.8 °F 80% 30.11 in 10.0 mi West 15.0 mph - N/A   Overcast
11:14 AM 30.2 °F 20.2 °F 24.8 °F 80% 30.09 in 10.0 mi WNW 12.7 mph - N/A   Mostly Cloudy
11:35 AM 32.0 °F 23.0 °F 26.6 °F 80% 30.09 in 10.0 mi NNW 11.5 mph - N/A   Scattered Clouds
11:55 AM 33.8 °F 27.0 °F 26.6 °F 75% 30.10 in 10.0 mi NW 8.1 mph - N/A   Scattered Clouds
12:15 PM 33.8 °F 27.0 °F 26.6 °F 75% 30.12 in 10.0 mi NNW 8.1 mph - N/A   Mostly Cloudy
12:35 PM 33.8 °F 27.7 °F 26.6 °F 75% 30.11 in 10.0 mi North 6.9 mph - N/A   Mostly Cloudy
12:55 PM 33.8 °F 27.7 °F 26.6 °F 75% 30.11 in 10.0 mi NNW 6.9 mph - N/A   Mostly Cloudy
1:14 PM 35.6 °F 28.0 °F 24.8 °F 65% 30.11 in 10.0 mi North 10.4 mph - N/A   Mostly Cloudy
1:35 PM 35.6 °F 29.2 °F 26.6 °F 70% 30.11 in 10.0 mi NNW 8.1 mph - N/A   Mostly Cloudy
1:54 PM 35.6 °F 27.1 °F 24.8 °F 65% 30.13 in 10.0 mi North 12.7 mph - N/A   Mostly Cloudy
2:15 PM 37.4 °F 30.8 °F 24.8 °F 60% 30.13 in 10.0 mi NNW 9.2 mph - N/A   Mostly Cloudy
2:35 PM 37.4 °F 30.8 °F 26.6 °F 65% 30.13 in 10.0 mi NW 9.2 mph - N/A   Mostly Cloudy
2:55 PM 37.4 °F 33.8 °F 26.6 °F 65% 30.14 in 10.0 mi NNW 4.6 mph 10.4 mph N/A   Mostly Cloudy
3:15 PM 35.6 °F 28.6 °F 26.6 °F 70% 30.15 in 10.0 mi WNW 9.2 mph - N/A   Mostly Cloudy
3:34 PM 35.6 °F 29.9 °F 26.6 °F 70% 30.15 in 10.0 mi NW 6.9 mph - N/A   Mostly Cloudy
3:55 PM 35.6 °F 28.6 °F 26.6 °F 70% 30.16 in 10.0 mi NNW 9.2 mph - N/A   Mostly Cloudy
4:15 PM 35.6 °F 28.6 °F 26.6 °F 70% 30.16 in 10.0 mi NNW 9.2 mph - N/A   Mostly Cloudy
4:35 PM 33.8 °F 25.8 °F 26.6 °F 75% 30.17 in 10.0 mi NW 10.4 mph - N/A   Scattered Clouds
4:54 PM 33.8 °F 25.3 °F 26.6 °F 75% 30.17 in 10.0 mi NNW 11.5 mph - N/A   Scattered Clouds
5:15 PM 33.8 °F 25.3 °F 26.6 °F 75% 30.17 in 10.0 mi North 11.5 mph - N/A   Scattered Clouds
5:35 PM 33.8 °F 25.3 °F 26.6 °F 75% 30.18 in 10.0 mi NNW 11.5 mph - N/A   Mostly Cloudy
5:55 PM 33.8 °F 24.8 °F 26.6 °F 75% 30.18 in 10.0 mi NNW 12.7 mph - N/A   Overcast
6:15 PM 33.8 °F 24.8 °F 26.6 °F 75% 30.19 in 10.0 mi NNW 12.7 mph - N/A   Overcast
6:35 PM 33.8 °F 26.4 °F 26.6 °F 75% 30.19 in 10.0 mi NNW 9.2 mph - N/A   Overcast
6:55 PM 33.8 °F 26.4 °F 26.6 °F 75% 30.19 in 10.0 mi NNW 9.2 mph - N/A   Overcast
7:13 PM 33.8 °F 26.4 °F 26.6 °F 75% 30.20 in 10.0 mi NNW 9.2 mph - N/A   Overcast
7:35 PM 33.8 °F 27.0 °F 26.6 °F 75% 30.20 in 10.0 mi NW 8.1 mph - N/A   Overcast
7:54 PM 33.8 °F 27.0 °F 26.6 °F 75% 30.19 in 10.0 mi NNW 8.1 mph - N/A   Mostly Cloudy
8:15 PM 32.0 °F 24.8 °F 26.6 °F 80% 30.20 in 10.0 mi NNW 8.1 mph - N/A   Mostly Cloudy
8:35 PM 32.0 °F 26.4 °F 26.6 °F 80% 30.20 in 10.0 mi NNW 5.8 mph - N/A   Overcast
8:55 PM 30.2 °F 23.4 °F 26.6 °F 86% 30.21 in 10.0 mi NW 6.9 mph - N/A   Overcast
9:15 PM 30.2 °F 24.3 °F 26.6 °F 86% 30.22 in 10.0 mi NW 5.8 mph - N/A   Overcast
9:35 PM 30.2 °F 25.4 °F 26.6 °F 86% 30.23 in 10.0 mi NW 4.6 mph - N/A   Mostly Cloudy
9:55 PM 30.2 °F 25.4 °F 26.6 °F 86% 30.23 in 10.0 mi NW 4.6 mph - N/A   Scattered Clouds
10:14 PM 30.2 °F 25.4 °F 26.6 °F 86% 30.24 in 10.0 mi NW 4.6 mph - N/A   Clear
10:35 PM 30.2 °F 25.4 °F 26.6 °F 86% 30.25 in 10.0 mi WNW 4.6 mph - N/A   Scattered Clouds
10:55 PM 28.4 °F 22.2 °F 24.8 °F 86% 30.25 in 10.0 mi NW 5.8 mph - N/A   Clear
11:15 PM 30.2 °F 24.3 °F 24.8 °F 80% 30.27 in 10.0 mi NW 5.8 mph - N/A   Clear
11:35 PM 28.4 °F 23.3 °F 24.8 °F 86% 30.27 in 10.0 mi WNW 4.6 mph - N/A   Clear
11:55 PM 28.4 °F 23.3 °F 24.8 °F 86% 30.27 in 10.0 mi WNW 4.6 mph - N/A   Clear